createdAt,value
2019-05-30T00:00:44.166Z,14.41
2019-05-30T00:01:44.157Z,14.40
2019-05-30T00:02:44.152Z,14.28
2019-05-30T00:03:44.179Z,14.35
2019-05-30T00:04:44.132Z,14.41
2019-05-30T00:05:44.123Z,14.36
2019-05-30T00:06:44.124Z,14.40
2019-05-30T00:07:44.106Z,14.33
2019-05-30T00:08:44.099Z,14.45
2019-05-30T00:09:44.117Z,14.48
2019-05-30T00:10:44.083Z,14.40
2019-05-30T00:11:44.072Z,14.37
2019-05-30T00:12:44.063Z,14.41
2019-05-30T00:13:44.055Z,14.36
2019-05-30T00:14:44.052Z,14.43
2019-05-30T00:15:44.038Z,14.35
2019-05-30T00:16:44.030Z,14.29
2019-05-30T00:17:44.021Z,14.33
2019-05-30T00:18:44.013Z,14.44
2019-05-30T00:19:44.105Z,14.45
2019-05-30T00:20:43.995Z,14.47
2019-05-30T00:21:43.987Z,14.40
2019-05-30T00:22:43.978Z,14.50
2019-05-30T00:23:43.969Z,14.53
2019-05-30T00:24:43.960Z,14.50
2019-05-30T00:25:43.952Z,14.47
2019-05-30T00:26:43.944Z,14.53
2019-05-30T00:27:43.936Z,14.55
2019-05-30T00:28:43.927Z,14.60
2019-05-30T00:29:43.918Z,14.53
2019-05-30T00:30:43.909Z,14.62
2019-05-30T00:31:43.900Z,14.59
2019-05-30T00:32:43.891Z,14.62
2019-05-30T00:33:43.883Z,14.59
2019-05-30T00:34:43.875Z,14.55
2019-05-30T00:35:43.867Z,14.59
2019-05-30T00:36:43.857Z,14.55
2019-05-30T00:37:43.849Z,14.58
2019-05-30T00:38:43.841Z,14.59
2019-05-30T00:39:43.836Z,14.60
2019-05-30T00:40:43.823Z,14.54
2019-05-30T00:41:43.816Z,14.63
2019-05-30T00:42:43.806Z,14.68
2019-05-30T00:43:43.798Z,14.66
2019-05-30T00:44:43.789Z,14.59
2019-05-30T00:45:43.780Z,14.65
2019-05-30T00:46:43.821Z,14.68
2019-05-30T00:47:43.764Z,14.68
2019-05-30T00:48:43.754Z,14.63
2019-05-30T00:49:43.747Z,14.63
2019-05-30T00:50:43.739Z,14.66
2019-05-30T00:51:43.730Z,14.65
2019-05-30T00:52:43.720Z,14.72
2019-05-30T00:53:43.715Z,14.68
2019-05-30T00:54:43.705Z,14.70
2019-05-30T00:55:43.701Z,14.84
2019-05-30T00:56:43.686Z,14.89
2019-05-30T00:57:43.685Z,14.79
2019-05-30T00:58:43.670Z,14.78
2019-05-30T00:59:43.662Z,14.88
2019-05-30T01:00:44.306Z,14.84
2019-05-30T01:01:43.646Z,14.79
2019-05-30T01:02:43.650Z,14.78
2019-05-30T01:03:43.627Z,14.77
2019-05-30T01:04:43.623Z,14.66
2019-05-30T01:05:43.610Z,14.65
2019-05-30T01:06:43.605Z,14.68
2019-05-30T01:07:43.594Z,14.69
2019-05-30T01:08:43.589Z,14.66
2019-05-30T01:09:43.576Z,14.72
2019-05-30T01:10:43.573Z,14.68
2019-05-30T01:11:43.560Z,14.72
2019-05-30T01:12:43.553Z,14.77
2019-05-30T01:13:43.542Z,14.73
2019-05-30T01:14:43.544Z,14.68
2019-05-30T01:15:43.526Z,14.66
2019-05-30T01:16:43.516Z,14.62
2019-05-30T01:17:43.509Z,14.77
2019-05-30T01:18:43.499Z,14.70
2019-05-30T01:19:43.491Z,14.72
2019-05-30T01:20:43.481Z,14.84
2019-05-30T01:21:43.473Z,14.81
2019-05-30T01:22:43.470Z,14.81
2019-05-30T01:23:43.456Z,14.82
2019-05-30T01:24:43.452Z,14.86
2019-05-30T01:25:43.438Z,14.85
2019-05-30T01:26:43.435Z,14.88
2019-05-30T01:27:43.422Z,14.89
2019-05-30T01:28:43.414Z,14.92
2019-05-30T01:29:43.412Z,14.92
2019-05-30T01:30:58.905Z,14.89
2019-05-30T01:31:43.387Z,14.94
2019-05-30T01:32:43.378Z,14.97
2019-05-30T01:33:43.369Z,14.94
2019-05-30T01:34:43.367Z,14.91
2019-05-30T01:35:43.354Z,14.91
2019-05-30T01:36:43.343Z,14.94
2019-05-30T01:37:43.338Z,15.00
2019-05-30T01:38:43.326Z,14.94
2019-05-30T01:39:43.318Z,14.96
2019-05-30T01:40:43.309Z,14.89
2019-05-30T01:41:43.301Z,14.77
2019-05-30T01:42:43.293Z,14.85
2019-05-30T01:43:43.283Z,14.78
2019-05-30T01:44:43.275Z,14.79
2019-05-30T01:45:43.267Z,14.79
2019-05-30T01:46:43.261Z,14.79
2019-05-30T01:47:43.249Z,14.79
2019-05-30T01:48:43.241Z,14.89
2019-05-30T01:49:43.234Z,14.84
2019-05-30T01:50:43.226Z,14.77
2019-05-30T01:51:43.229Z,14.89
2019-05-30T01:52:43.212Z,14.92
2019-05-30T01:53:43.200Z,14.94
2019-05-30T01:54:43.190Z,15.00
2019-05-30T01:55:43.186Z,14.86
2019-05-30T01:56:43.172Z,14.96
2019-05-30T01:57:43.170Z,14.97
2019-05-30T01:58:43.157Z,14.99
2019-05-30T01:59:43.147Z,14.94
2019-05-30T02:00:43.144Z,15.06
2019-05-30T02:01:43.132Z,15.07
2019-05-30T02:02:43.122Z,15.00
2019-05-30T02:03:43.114Z,14.92
2019-05-30T02:04:43.104Z,14.92
2019-05-30T02:05:43.096Z,14.99
2019-05-30T02:06:43.089Z,15.09
2019-05-30T02:07:43.080Z,14.99
2019-05-30T02:08:43.073Z,14.97
2019-05-30T02:09:43.063Z,15.03
2019-05-30T02:10:43.055Z,15.03
2019-05-30T02:11:43.047Z,14.92
2019-05-30T02:12:43.037Z,14.94
2019-05-30T02:13:43.031Z,14.92
2019-05-30T02:14:43.021Z,14.92
2019-05-30T02:15:43.014Z,14.91
2019-05-30T02:16:43.004Z,14.88
2019-05-30T02:17:42.996Z,14.92
2019-05-30T02:18:42.987Z,14.92
2019-05-30T02:19:42.985Z,15.06
2019-05-30T02:20:42.969Z,14.97
2019-05-30T02:21:42.968Z,14.97
2019-05-30T02:22:42.955Z,15.06
2019-05-30T02:23:42.978Z,14.97
2019-05-30T02:24:42.936Z,15.03
2019-05-30T02:25:42.927Z,15.03
2019-05-30T02:26:42.919Z,14.99
2019-05-30T02:27:42.911Z,15.00
2019-05-30T02:28:42.902Z,14.91
2019-05-30T02:29:42.894Z,14.94
2019-05-30T02:30:42.886Z,15.00
2019-05-30T02:31:42.878Z,15.00
2019-05-30T02:32:42.875Z,15.03
2019-05-30T02:33:42.866Z,14.99
2019-05-30T02:34:42.852Z,14.97
2019-05-30T02:35:42.845Z,14.97
2019-05-30T02:36:42.835Z,14.99
2019-05-30T02:37:42.836Z,14.99
2019-05-30T02:38:42.818Z,14.97
2019-05-30T02:39:42.827Z,14.97
2019-05-30T02:40:42.807Z,15.00
2019-05-30T02:41:42.800Z,14.94
2019-05-30T02:42:42.791Z,15.02
2019-05-30T02:43:42.787Z,14.99
2019-05-30T02:44:42.766Z,14.97
2019-05-30T02:45:42.761Z,14.92
2019-05-30T02:46:42.753Z,15.00
2019-05-30T02:47:42.743Z,15.07
2019-05-30T02:48:58.273Z,15.06
2019-05-30T02:49:42.724Z,15.09
2019-05-30T02:50:42.726Z,14.96
2019-05-30T02:51:42.717Z,15.03
2019-05-30T02:52:42.707Z,15.06
2019-05-30T02:53:42.691Z,15.06
2019-05-30T02:54:42.682Z,15.09
2019-05-30T02:55:42.677Z,14.96
2019-05-30T02:56:42.665Z,15.06
2019-05-30T02:57:42.661Z,15.10
2019-05-30T02:58:42.649Z,15.06
2019-05-30T02:59:42.641Z,15.06
2019-05-30T03:00:42.632Z,15.04
2019-05-30T03:01:58.794Z,15.07
2019-05-30T03:02:42.616Z,15.06
2019-05-30T03:03:42.611Z,15.11
2019-05-30T03:04:42.597Z,15.15
2019-05-30T03:05:42.587Z,15.18
2019-05-30T03:06:42.592Z,15.09
2019-05-30T03:07:42.572Z,15.17
2019-05-30T03:08:42.561Z,15.17
2019-05-30T03:09:42.553Z,15.18
2019-05-30T03:10:42.545Z,15.17
2019-05-30T03:11:42.542Z,15.15
2019-05-30T03:12:42.527Z,15.07
2019-05-30T03:13:42.518Z,15.15
2019-05-30T03:14:42.512Z,15.03
2019-05-30T03:15:42.508Z,15.09
2019-05-30T03:16:42.496Z,15.06
2019-05-30T03:17:42.486Z,15.07
2019-05-30T03:18:42.489Z,15.06
2019-05-30T03:19:42.469Z,15.09
2019-05-30T03:20:42.458Z,15.07
2019-05-30T03:21:42.448Z,15.04
2019-05-30T03:22:42.441Z,15.09
2019-05-30T03:23:42.448Z,15.07
2019-05-30T03:24:42.423Z,15.07
2019-05-30T03:25:42.416Z,15.10
2019-05-30T03:26:42.404Z,15.04
2019-05-30T03:27:42.398Z,15.04
2019-05-30T03:28:42.391Z,15.09
2019-05-30T03:29:42.380Z,15.00
2019-05-30T03:30:42.375Z,15.09
2019-05-30T03:31:42.362Z,15.11
2019-05-30T03:33:43.192Z,15.07
2019-05-30T03:34:42.364Z,15.10
2019-05-30T03:35:44.185Z,15.09
2019-05-30T03:36:42.317Z,15.10
2019-05-30T03:37:42.309Z,14.99
2019-05-30T03:38:42.299Z,15.04
2019-05-30T03:39:42.291Z,15.00
2019-05-30T03:40:42.282Z,14.92
2019-05-30T03:41:42.297Z,15.00
2019-05-30T03:42:42.264Z,15.04
2019-05-30T03:43:42.255Z,14.92
2019-05-30T03:44:42.250Z,14.92
2019-05-30T03:45:42.245Z,14.94
2019-05-30T03:46:42.228Z,15.00
2019-05-30T03:47:42.219Z,15.06
2019-05-30T03:48:42.211Z,15.04
2019-05-30T03:49:42.209Z,15.00
2019-05-30T03:50:42.194Z,15.03
2019-05-30T03:51:42.185Z,14.97
2019-05-30T03:52:42.175Z,15.00
2019-05-30T03:53:42.168Z,15.06
2019-05-30T03:54:42.157Z,15.06
2019-05-30T03:55:42.147Z,15.02
2019-05-30T03:56:42.139Z,15.15
2019-05-30T03:57:42.132Z,15.06
2019-05-30T03:58:42.123Z,15.10
2019-05-30T03:59:42.112Z,15.10
2019-05-30T04:00:42.105Z,15.06
2019-05-30T04:01:42.094Z,15.03
2019-05-30T04:02:56.331Z,15.04
2019-05-30T04:03:42.090Z,15.06
2019-05-30T04:04:42.070Z,15.11
2019-05-30T04:05:42.062Z,15.09
2019-05-30T04:06:42.052Z,15.07
2019-05-30T04:07:42.042Z,15.07
2019-05-30T04:08:42.031Z,15.02
2019-05-30T04:09:42.021Z,15.11
2019-05-30T04:10:42.014Z,15.17
2019-05-30T04:11:42.007Z,15.18
2019-05-30T04:12:41.996Z,15.10
2019-05-30T04:13:41.993Z,15.11
2019-05-30T04:14:41.978Z,15.15
2019-05-30T04:15:41.968Z,15.18
2019-05-30T04:16:41.968Z,15.21
2019-05-30T04:17:41.950Z,15.21
2019-05-30T04:18:41.942Z,15.19
2019-05-30T04:19:41.933Z,15.18
2019-05-30T04:20:41.923Z,15.19
2019-05-30T04:21:41.914Z,15.19
2019-05-30T04:22:41.906Z,15.22
2019-05-30T04:23:41.898Z,15.24
2019-05-30T04:24:41.888Z,15.19
2019-05-30T04:25:41.879Z,15.25
2019-05-30T04:26:41.870Z,15.22
2019-05-30T04:27:41.860Z,15.19
2019-05-30T04:28:41.851Z,15.21
2019-05-30T04:29:41.842Z,15.18
2019-05-30T04:30:41.833Z,15.17
2019-05-30T04:31:41.824Z,15.27
2019-05-30T04:32:41.817Z,15.27
2019-05-30T04:33:41.846Z,15.27
2019-05-30T04:34:41.797Z,15.25
2019-05-30T04:35:41.794Z,15.27
2019-05-30T04:36:41.784Z,15.28
2019-05-30T04:37:41.771Z,15.24
2019-05-30T04:38:41.769Z,15.19
2019-05-30T04:39:41.754Z,15.29
2019-05-30T04:40:41.744Z,15.27
2019-05-30T04:41:41.735Z,15.17
2019-05-30T04:42:41.726Z,15.22
2019-05-30T04:43:41.723Z,15.18
2019-05-30T04:44:41.727Z,15.19
2019-05-30T04:45:41.703Z,15.22
2019-05-30T04:46:41.692Z,15.25
2019-05-30T04:47:41.685Z,15.24
2019-05-30T04:48:41.675Z,15.28
2019-05-30T04:49:41.667Z,15.29
2019-05-30T04:50:41.655Z,15.27
2019-05-30T04:51:41.648Z,15.27
2019-05-30T04:52:41.640Z,15.27
2019-05-30T04:53:41.628Z,15.24
2019-05-30T04:54:41.619Z,15.22
2019-05-30T04:55:41.610Z,15.27
2019-05-30T04:56:41.602Z,15.24
2019-05-30T04:57:41.593Z,15.28
2019-05-30T04:58:42.740Z,15.25
2019-05-30T04:59:41.574Z,15.21
2019-05-30T05:00:41.566Z,15.33
2019-05-30T05:01:41.557Z,15.29
2019-05-30T05:02:41.547Z,15.27
2019-05-30T05:03:45.795Z,15.28
2019-05-30T05:04:41.530Z,15.31
2019-05-30T05:05:41.520Z,15.33
2019-05-30T05:06:41.520Z,15.37
2019-05-30T05:07:41.504Z,15.37
2019-05-30T05:08:41.494Z,15.36
2019-05-30T05:09:41.486Z,15.42
2019-05-30T05:10:41.476Z,15.39
2019-05-30T05:11:41.469Z,15.42
2019-05-30T05:12:41.508Z,15.39
2019-05-30T05:13:41.449Z,15.43
2019-05-30T05:14:41.441Z,15.40
2019-05-30T05:15:41.433Z,15.47
2019-05-30T05:16:41.423Z,15.55
2019-05-30T05:17:41.415Z,15.42
2019-05-30T05:18:41.408Z,15.36
2019-05-30T05:19:41.397Z,15.31
2019-05-30T05:20:41.392Z,15.27
2019-05-30T05:21:41.380Z,15.17
2019-05-30T05:22:41.372Z,15.06
2019-05-30T05:23:41.363Z,15.07
2019-05-30T05:24:41.352Z,15.14
2019-05-30T05:25:41.343Z,15.09
2019-05-30T05:26:41.335Z,15.03
2019-05-30T05:27:41.327Z,15.17
2019-05-30T05:28:41.319Z,15.19
2019-05-30T05:29:41.328Z,15.19
2019-05-30T05:30:41.299Z,15.24
2019-05-30T05:31:41.290Z,15.25
2019-05-30T05:32:41.282Z,15.24
2019-05-30T05:33:55.720Z,15.31
2019-05-30T05:34:41.263Z,15.36
2019-05-30T05:35:41.256Z,15.43
2019-05-30T05:36:41.246Z,15.39
2019-05-30T05:37:41.236Z,15.37
2019-05-30T05:38:41.237Z,15.44
2019-05-30T05:39:41.218Z,15.46
2019-05-30T05:40:41.210Z,15.42
2019-05-30T05:41:41.201Z,15.35
2019-05-30T05:42:41.200Z,15.36
2019-05-30T05:43:41.184Z,15.37
2019-05-30T05:44:41.175Z,15.40
2019-05-30T05:45:41.167Z,15.36
2019-05-30T05:46:41.159Z,15.36
2019-05-30T05:47:41.149Z,15.33
2019-05-30T05:48:41.139Z,15.36
2019-05-30T05:49:41.130Z,15.46
2019-05-30T05:50:41.129Z,15.42
2019-05-30T05:51:41.113Z,15.42
2019-05-30T05:52:41.107Z,15.29
2019-05-30T05:53:41.096Z,15.28
2019-05-30T05:54:41.087Z,15.25
2019-05-30T05:55:41.078Z,15.28
2019-05-30T05:56:41.069Z,15.19
2019-05-30T05:57:41.063Z,15.18
2019-05-30T05:58:41.051Z,15.17
2019-05-30T05:59:41.043Z,15.09
2019-05-30T06:00:41.034Z,15.03
2019-05-30T06:01:41.028Z,15.17
2019-05-30T06:02:41.017Z,15.04
2019-05-30T06:03:41.008Z,15.03
2019-05-30T06:04:41.000Z,15.07
2019-05-30T06:05:52.543Z,15.18
2019-05-30T06:06:40.981Z,15.15
2019-05-30T06:07:40.972Z,15.11
2019-05-30T06:08:40.963Z,15.19
2019-05-30T06:09:40.954Z,15.18
2019-05-30T06:10:40.947Z,15.22
2019-05-30T06:11:40.940Z,15.22
2019-05-30T06:12:40.928Z,15.25
2019-05-30T06:13:40.919Z,15.18
2019-05-30T06:14:40.910Z,15.31
2019-05-30T06:15:40.902Z,15.28
2019-05-30T06:16:40.893Z,15.31
2019-05-30T06:17:40.884Z,15.27
2019-05-30T06:18:40.884Z,15.27
2019-05-30T06:19:46.264Z,15.28
2019-05-30T06:20:40.858Z,15.31
2019-05-30T06:21:53.076Z,15.35
2019-05-30T06:22:40.841Z,15.39
2019-05-30T06:23:40.832Z,15.39
2019-05-30T06:24:40.825Z,15.39
2019-05-30T06:25:40.823Z,15.44
2019-05-30T06:26:40.807Z,15.51
2019-05-30T06:27:40.801Z,15.43
2019-05-30T06:28:40.793Z,15.44
2019-05-30T06:29:40.780Z,15.49
2019-05-30T06:30:40.771Z,15.59
2019-05-30T06:31:40.765Z,15.65
2019-05-30T06:32:40.760Z,15.61
2019-05-30T06:33:40.746Z,15.54
2019-05-30T06:34:40.738Z,15.54
2019-05-30T06:35:40.804Z,15.59
2019-05-30T06:36:40.721Z,15.67
2019-05-30T06:37:40.712Z,15.65
2019-05-30T06:38:40.704Z,15.65
2019-05-30T06:39:40.696Z,15.62
2019-05-30T06:40:40.687Z,15.86
2019-05-30T06:41:40.681Z,16.01
2019-05-30T06:42:40.670Z,16.01
2019-05-30T06:43:40.663Z,16.02
2019-05-30T06:44:40.654Z,16.13
2019-05-30T06:45:40.646Z,16.12
2019-05-30T06:46:40.638Z,16.12
2019-05-30T06:47:40.630Z,16.13
2019-05-30T06:48:40.622Z,16.09
2019-05-30T06:49:40.615Z,16.13
2019-05-30T06:50:40.609Z,16.16
2019-05-30T06:51:40.599Z,16.12
2019-05-30T06:52:40.599Z,16.24
2019-05-30T06:53:40.584Z,16.31
2019-05-30T06:54:40.576Z,16.31
2019-05-30T06:55:40.569Z,16.24
2019-05-30T06:56:40.560Z,16.29
2019-05-30T06:57:40.552Z,16.36
2019-05-30T06:58:48.544Z,16.43
2019-05-30T06:59:40.538Z,16.41
2019-05-30T07:00:40.530Z,16.43
2019-05-30T07:01:40.522Z,16.50
2019-05-30T07:02:40.518Z,16.60
2019-05-30T07:03:40.635Z,16.71
2019-05-30T07:04:51.372Z,16.72
2019-05-30T07:05:40.977Z,16.76
2019-05-30T07:06:40.726Z,16.71
2019-05-30T07:07:40.677Z,16.58
2019-05-30T07:08:40.474Z,16.54
2019-05-30T07:09:40.466Z,16.56
2019-05-30T07:10:40.458Z,16.56
2019-05-30T07:11:40.451Z,16.53
2019-05-30T07:12:40.446Z,16.46
2019-05-30T07:13:40.436Z,16.35
2019-05-30T07:14:40.430Z,16.39
2019-05-30T07:15:40.425Z,16.38
2019-05-30T07:16:40.414Z,16.39
2019-05-30T07:17:40.407Z,16.23
2019-05-30T07:18:40.401Z,16.29
2019-05-30T07:19:40.393Z,16.28
2019-05-30T07:20:40.385Z,16.28
2019-05-30T07:21:40.377Z,16.20
2019-05-30T07:22:40.370Z,16.09
2019-05-30T07:23:40.366Z,16.08
2019-05-30T07:24:40.354Z,15.98
2019-05-30T07:25:40.346Z,16.10
2019-05-30T07:26:40.340Z,16.09
2019-05-30T07:27:40.350Z,16.23
2019-05-30T07:28:40.323Z,16.23
2019-05-30T07:29:40.315Z,16.17
2019-05-30T07:30:40.309Z,16.10
2019-05-30T07:31:40.301Z,16.15
2019-05-30T07:32:40.292Z,15.98
2019-05-30T07:33:40.285Z,16.02
2019-05-30T07:34:40.276Z,15.98
2019-05-30T07:35:40.269Z,16.01
2019-05-30T07:36:40.260Z,16.00
2019-05-30T07:37:40.252Z,16.00
2019-05-30T07:38:40.247Z,15.94
2019-05-30T07:39:40.238Z,16.00
2019-05-30T07:40:40.230Z,16.04
2019-05-30T07:41:40.221Z,16.02
2019-05-30T07:42:40.215Z,16.10
2019-05-30T07:43:40.206Z,16.10
2019-05-30T07:44:40.200Z,16.02
2019-05-30T07:45:40.190Z,15.98
2019-05-30T07:46:40.182Z,15.97
2019-05-30T07:47:40.175Z,16.01
2019-05-30T07:48:40.167Z,16.02
2019-05-30T07:49:40.162Z,16.04
2019-05-30T07:50:40.157Z,16.09
2019-05-30T07:51:40.143Z,16.13
2019-05-30T07:52:40.134Z,16.10
2019-05-30T07:53:40.125Z,16.05
2019-05-30T07:54:40.118Z,16.01
2019-05-30T07:55:40.115Z,16.05
2019-05-30T07:56:40.101Z,15.98
2019-05-30T07:57:41.441Z,15.90
2019-05-30T07:58:40.087Z,15.86
2019-05-30T07:59:40.079Z,15.86
2019-05-30T08:00:40.069Z,15.95
2019-05-30T08:01:40.069Z,16.05
2019-05-30T08:02:40.053Z,16.09
2019-05-30T08:03:40.046Z,16.20
2019-05-30T08:04:40.039Z,16.23
2019-05-30T08:05:40.030Z,16.32
2019-05-30T08:06:40.022Z,16.41
2019-05-30T08:07:40.019Z,16.41
2019-05-30T08:08:40.032Z,16.57
2019-05-30T08:09:39.999Z,16.64
2019-05-30T08:10:39.992Z,16.75
2019-05-30T08:11:39.985Z,16.84
2019-05-30T08:12:39.988Z,16.87
2019-05-30T08:13:39.969Z,16.71
2019-05-30T08:14:39.962Z,16.76
2019-05-30T08:15:44.105Z,16.74
2019-05-30T08:16:39.947Z,16.81
2019-05-30T08:17:43.359Z,16.83
2019-05-30T08:18:39.934Z,16.81
2019-05-30T08:19:39.927Z,16.91
2019-05-30T08:20:39.923Z,16.83
2019-05-30T08:21:39.929Z,16.86
2019-05-30T08:22:39.911Z,16.84
2019-05-30T08:23:39.899Z,16.69
2019-05-30T08:24:39.891Z,16.65
2019-05-30T08:25:39.886Z,16.68
2019-05-30T08:26:39.884Z,16.61
2019-05-30T08:27:39.871Z,16.71
2019-05-30T08:28:42.549Z,16.74
2019-05-30T08:29:39.857Z,16.76
2019-05-30T08:30:39.951Z,16.83
2019-05-30T08:31:39.844Z,17.01
2019-05-30T08:32:39.837Z,17.02
2019-05-30T08:33:39.850Z,16.96
2019-05-30T08:34:39.823Z,16.93
2019-05-30T08:35:49.086Z,16.97
2019-05-30T08:36:39.809Z,17.01
2019-05-30T08:37:39.806Z,16.86
2019-05-30T08:38:39.800Z,16.76
2019-05-30T08:39:39.790Z,16.81
2019-05-30T08:40:39.834Z,16.78
2019-05-30T08:41:39.775Z,16.81
2019-05-30T08:42:40.362Z,16.93
2019-05-30T08:43:39.795Z,16.94
2019-05-30T08:44:40.167Z,17.19
2019-05-30T08:45:40.035Z,17.23
2019-05-30T08:46:40.037Z,17.36
2019-05-30T08:47:40.687Z,17.38
2019-05-30T08:48:40.368Z,17.46
2019-05-30T08:49:40.405Z,17.42
2019-05-30T08:50:44.062Z,17.38
2019-05-30T08:51:40.458Z,17.46
2019-05-30T08:52:40.923Z,17.27
2019-05-30T08:53:40.669Z,17.34
2019-05-30T08:54:40.584Z,17.27
2019-05-30T08:55:40.637Z,17.42
2019-05-30T08:56:40.653Z,17.42
2019-05-30T08:57:40.976Z,17.41
2019-05-30T08:58:40.838Z,17.41
2019-05-30T08:59:40.756Z,17.57
2019-05-30T09:00:39.654Z,17.70
2019-05-30T09:01:40.493Z,17.72
2019-05-30T09:02:40.755Z,17.67
2019-05-30T09:03:40.083Z,17.82
2019-05-30T09:04:39.843Z,17.94
2019-05-30T09:05:56.550Z,17.94
2019-05-30T09:06:39.958Z,17.95
2019-05-30T09:07:40.236Z,18.11
2019-05-30T09:08:40.051Z,18.31
2019-05-30T09:09:40.165Z,18.26
2019-05-30T09:10:40.856Z,18.31
2019-05-30T09:11:40.524Z,18.16
2019-05-30T09:12:40.874Z,17.97
2019-05-30T09:13:40.403Z,17.72
2019-05-30T09:14:41.063Z,17.59
2019-05-30T09:15:40.949Z,17.59
2019-05-30T09:16:39.563Z,17.54
2019-05-30T09:17:40.677Z,17.57
2019-05-30T09:18:40.280Z,17.54
2019-05-30T09:19:40.347Z,17.57
2019-05-30T09:20:40.261Z,17.41
2019-05-30T09:21:39.845Z,17.41
2019-05-30T09:22:39.823Z,17.45
2019-05-30T09:23:40.951Z,17.44
2019-05-30T09:24:40.439Z,17.45
2019-05-30T09:25:40.006Z,17.49
2019-05-30T09:26:44.222Z,17.42
2019-05-30T09:27:40.882Z,17.49
2019-05-30T09:28:40.662Z,17.52
2019-05-30T09:29:41.051Z,17.38
2019-05-30T09:30:40.826Z,17.41
2019-05-30T09:31:41.042Z,17.54
2019-05-30T09:32:39.957Z,17.51
2019-05-30T09:33:40.849Z,17.46
2019-05-30T09:34:40.394Z,17.67
2019-05-30T09:35:40.308Z,17.71
2019-05-30T09:36:39.963Z,17.74
2019-05-30T09:37:40.540Z,17.94
2019-05-30T09:38:40.556Z,18.03
2019-05-30T09:39:40.481Z,18.10
2019-05-30T09:40:40.849Z,18.07
2019-05-30T09:41:40.469Z,18.03
2019-05-30T09:42:40.771Z,18.16
2019-05-30T09:43:40.902Z,18.29
2019-05-30T09:44:40.497Z,18.38
2019-05-30T09:45:39.587Z,18.34
2019-05-30T09:46:40.870Z,18.56
2019-05-30T09:47:41.316Z,18.45
2019-05-30T09:48:40.189Z,18.35
2019-05-30T09:49:40.167Z,18.29
2019-05-30T09:50:42.016Z,18.19
2019-05-30T09:51:40.578Z,18.20
2019-05-30T09:52:39.348Z,18.07
2019-05-30T09:53:39.336Z,18.08
2019-05-30T09:54:39.329Z,18.08
2019-05-30T09:55:39.323Z,18.08
2019-05-30T09:56:39.317Z,17.92
2019-05-30T09:57:39.311Z,17.92
2019-05-30T09:58:39.305Z,17.97
2019-05-30T09:59:39.299Z,18.16
2019-05-30T10:00:39.294Z,18.18
2019-05-30T10:01:39.287Z,18.23
2019-05-30T10:02:39.285Z,18.23
2019-05-30T10:03:39.276Z,18.26
2019-05-30T10:04:39.269Z,18.07
2019-05-30T10:05:39.271Z,18.01
2019-05-30T10:06:39.258Z,18.15
2019-05-30T10:07:39.257Z,18.41
2019-05-30T10:08:39.246Z,18.53
2019-05-30T10:09:39.241Z,18.60
2019-05-30T10:10:39.240Z,18.62
2019-05-30T10:11:39.231Z,18.63
2019-05-30T10:12:39.225Z,18.55
2019-05-30T10:13:39.220Z,18.56
2019-05-30T10:14:39.216Z,18.58
2019-05-30T10:15:39.235Z,18.71
2019-05-30T10:16:39.208Z,18.66
2019-05-30T10:17:39.200Z,18.70
2019-05-30T10:18:39.194Z,18.62
2019-05-30T10:19:39.191Z,18.74
2019-05-30T10:20:39.185Z,18.74
2019-05-30T10:21:39.179Z,18.90
2019-05-30T10:22:39.175Z,18.96
2019-05-30T10:23:39.170Z,18.96
2019-05-30T10:24:42.834Z,18.93
2019-05-30T10:25:39.163Z,18.92
2019-05-30T10:26:39.156Z,18.88
2019-05-30T10:27:39.152Z,18.80
2019-05-30T10:28:39.150Z,18.71
2019-05-30T10:29:39.146Z,18.59
2019-05-30T10:30:39.135Z,18.55
2019-05-30T10:31:39.130Z,18.55
2019-05-30T10:32:39.129Z,18.45
2019-05-30T10:33:39.119Z,18.58
2019-05-30T10:34:39.114Z,18.58
2019-05-30T10:35:39.160Z,18.68
2019-05-30T10:36:44.365Z,18.77
2019-05-30T10:37:39.099Z,18.78
2019-05-30T10:38:39.094Z,18.98
2019-05-30T10:39:39.090Z,18.92
2019-05-30T10:40:39.086Z,18.96
2019-05-30T10:41:39.079Z,18.98
2019-05-30T10:42:39.075Z,18.92
2019-05-30T10:43:39.073Z,18.92
2019-05-30T10:44:39.066Z,18.73
2019-05-30T10:45:39.060Z,18.70
2019-05-30T10:46:39.058Z,18.59
2019-05-30T10:47:39.052Z,18.44
2019-05-30T10:48:39.096Z,18.40
2019-05-30T10:49:39.042Z,18.31
2019-05-30T10:50:39.035Z,18.33
2019-05-30T10:51:39.031Z,18.41
2019-05-30T10:52:39.022Z,18.35
2019-05-30T10:53:39.021Z,18.26
2019-05-30T10:54:39.013Z,18.23
2019-05-30T10:55:39.008Z,18.11
2019-05-30T10:56:38.999Z,18.07
2019-05-30T10:57:38.993Z,18.19
2019-05-30T10:58:38.990Z,18.31
2019-05-30T10:59:38.982Z,18.44
2019-05-30T11:00:38.975Z,18.35
2019-05-30T11:01:38.987Z,18.40
2019-05-30T11:02:39.021Z,18.41
2019-05-30T11:03:38.959Z,18.55
2019-05-30T11:04:38.952Z,18.56
2019-05-30T11:05:38.946Z,18.63
2019-05-30T11:06:38.947Z,18.70
2019-05-30T11:07:52.817Z,18.56
2019-05-30T11:08:38.929Z,18.53
2019-05-30T11:09:38.924Z,18.60
2019-05-30T11:10:38.928Z,18.65
2019-05-30T11:11:38.916Z,18.52
2019-05-30T11:12:38.906Z,18.41
2019-05-30T11:13:38.907Z,18.52
2019-05-30T11:14:38.894Z,18.45
2019-05-30T11:15:38.890Z,18.45
2019-05-30T11:16:38.883Z,18.43
2019-05-30T11:17:38.876Z,18.45
2019-05-30T11:18:38.871Z,18.56
2019-05-30T11:19:38.886Z,18.68
2019-05-30T11:20:38.862Z,18.77
2019-05-30T11:21:38.855Z,18.83
2019-05-30T11:22:38.850Z,18.78
2019-05-30T11:23:38.842Z,18.71
2019-05-30T11:24:38.841Z,18.60
2019-05-30T11:25:38.834Z,18.59
2019-05-30T11:26:38.824Z,18.59
2019-05-30T11:27:38.822Z,18.56
2019-05-30T11:28:38.812Z,18.53
2019-05-30T11:29:38.807Z,18.68
2019-05-30T11:30:38.801Z,18.71
2019-05-30T11:31:38.799Z,18.84
2019-05-30T11:32:38.792Z,18.95
2019-05-30T11:33:38.784Z,19.11
2019-05-30T11:34:38.779Z,19.21
2019-05-30T11:35:38.778Z,19.21
2019-05-30T11:36:38.768Z,19.18
2019-05-30T11:37:38.763Z,19.19
2019-05-30T11:38:38.758Z,19.26
2019-05-30T11:39:38.753Z,19.31
2019-05-30T11:40:38.776Z,19.44
2019-05-30T11:41:38.743Z,19.30
2019-05-30T11:42:38.739Z,19.39
2019-05-30T11:43:38.733Z,19.33
2019-05-30T11:44:38.728Z,19.44
2019-05-30T11:45:38.722Z,19.54
2019-05-30T11:46:38.718Z,19.34
2019-05-30T11:47:38.723Z,19.15
2019-05-30T11:48:38.707Z,19.14
2019-05-30T11:49:38.715Z,19.07
2019-05-30T11:50:38.699Z,18.98
2019-05-30T11:51:38.693Z,18.86
2019-05-30T11:52:38.686Z,18.81
2019-05-30T11:53:38.681Z,18.89
2019-05-30T11:54:38.683Z,18.93
2019-05-30T11:55:38.670Z,18.88
2019-05-30T11:56:38.665Z,18.73
2019-05-30T11:57:38.659Z,18.74
2019-05-30T11:58:38.653Z,18.68
2019-05-30T11:59:38.648Z,18.75
2019-05-30T12:00:38.642Z,18.73
2019-05-30T12:01:38.637Z,18.73
2019-05-30T12:02:38.632Z,18.84
2019-05-30T12:03:38.627Z,18.92
2019-05-30T12:04:38.619Z,18.81
2019-05-30T12:05:38.614Z,18.88
2019-05-30T12:06:38.610Z,18.93
2019-05-30T12:07:38.603Z,19.04
2019-05-30T12:08:38.596Z,19.12
2019-05-30T12:09:38.592Z,19.24
2019-05-30T12:10:38.586Z,19.45
2019-05-30T12:11:38.582Z,19.62
2019-05-30T12:12:38.579Z,19.54
2019-05-30T12:13:38.575Z,19.51
2019-05-30T12:14:38.566Z,19.36
2019-05-30T12:15:38.563Z,19.27
2019-05-30T12:16:38.556Z,19.19
2019-05-30T12:17:38.550Z,19.18
2019-05-30T12:18:38.545Z,19.27
2019-05-30T12:19:38.545Z,19.39
2019-05-30T12:20:38.534Z,19.55
2019-05-30T12:21:38.530Z,19.59
2019-05-30T12:22:38.524Z,19.62
2019-05-30T12:23:38.520Z,19.69
2019-05-30T12:24:38.517Z,19.71
2019-05-30T12:25:38.509Z,19.81
2019-05-30T12:26:38.507Z,19.67
2019-05-30T12:27:38.502Z,19.71
2019-05-30T12:28:38.496Z,19.63
2019-05-30T12:29:38.490Z,19.74
2019-05-30T12:30:54.377Z,19.74
2019-05-30T12:31:38.483Z,19.64
2019-05-30T12:32:38.479Z,19.77
2019-05-30T12:33:38.473Z,19.86
2019-05-30T12:34:38.467Z,19.94
2019-05-30T12:35:38.464Z,20.03
2019-05-30T12:36:38.459Z,20.02
2019-05-30T12:37:53.600Z,19.99
2019-05-30T12:38:38.451Z,19.86
2019-05-30T12:39:38.447Z,19.64
2019-05-30T12:40:38.445Z,19.66
2019-05-30T12:41:38.438Z,19.69
2019-05-30T12:42:38.441Z,19.70
2019-05-30T12:43:38.430Z,19.64
2019-05-30T12:44:38.426Z,19.67
2019-05-30T12:45:38.420Z,19.69
2019-05-30T12:46:38.417Z,19.66
2019-05-30T12:47:38.411Z,19.64
2019-05-30T12:48:38.406Z,19.47
2019-05-30T12:49:38.403Z,19.36
2019-05-30T12:50:38.397Z,19.49
2019-05-30T12:51:38.395Z,19.49
2019-05-30T12:52:38.390Z,19.34
2019-05-30T12:53:38.389Z,19.19